Time;durP1;ratioP1;P1;durP2;ratioP2;P2;SDS_P1;SDS_P2;PMS_P1;PMS_P2;Temp;Humidity;BMP_temperature;BMP_pressure;BME280_temperature;BME280_humidity;BME280_pressure;Samples;Min_cycle;Max_cycle;Signal;HPM_P1;HPM_P2
2021/07/26 00:00:10;;;;;;;30.35;22.63;;;19.30;99.90;;;;;;5063462;28;20448;-67
2021/07/26 00:02:36;;;;;;;29.45;22.35;;;19.30;99.90;;;;;;5053579;28;20045;-68
2021/07/26 00:05:05;;;;;;;30.63;23.05;;;19.30;99.90;;;;;;5054231;28;20095;-67
2021/07/26 00:07:32;;;;;;;30.88;21.98;;;19.20;99.90;;;;;;5053020;28;20037;-67
2021/07/26 00:09:58;;;;;;;33.15;23.20;;;19.20;99.90;;;;;;5065413;28;20045;-67
2021/07/26 00:12:25;;;;;;;28.38;21.88;;;19.30;99.90;;;;;;5051796;28;20106;-67
2021/07/26 00:14:51;;;;;;;28.92;20.73;;;19.30;99.90;;;;;;5067367;28;20045;-74
2021/07/26 00:17:18;;;;;;;28.25;20.83;;;19.30;99.90;;;;;;5064369;28;20044;-68
2021/07/26 00:19:45;;;;;;;28.70;21.25;;;19.30;99.90;;;;;;5058617;28;20048;-67
2021/07/26 00:22:12;;;;;;;30.40;22.02;;;19.20;99.90;;;;;;5076561;28;20048;-67
2021/07/26 00:24:39;;;;;;;31.02;21.92;;;19.30;99.90;;;;;;5062871;28;20099;-67
2021/07/26 00:27:06;;;;;;;26.63;20.02;;;19.30;99.90;;;;;;5078065;28;20045;-67
2021/07/26 00:29:32;;;;;;;26.75;20.80;;;19.40;99.90;;;;;;5076132;28;20405;-67
2021/07/26 00:31:59;;;;;;;28.15;21.40;;;19.30;99.90;;;;;;5077991;28;20412;-67
2021/07/26 00:34:26;;;;;;;28.95;21.92;;;19.30;99.90;;;;;;5078359;28;20424;-67
2021/07/26 00:36:54;;;;;;;30.23;21.98;;;19.30;99.90;;;;;;5078261;28;20048;-67
2021/07/26 00:39:24;;;;;;;27.70;21.40;;;19.20;99.90;;;;;;5077698;28;20131;-67
2021/07/26 00:41:51;;;;;;;27.92;21.05;;;19.20;99.90;;;;;;5079065;28;20045;-68
2021/07/26 00:44:19;;;;;;;26.50;21.40;;;19.20;99.90;;;;;;5078195;28;20045;-67
2021/07/26 00:46:46;;;;;;;26.30;20.17;;;19.20;99.90;;;;;;5074829;28;20045;-67
2021/07/26 00:49:15;;;;;;;27.52;20.08;;;19.20;99.90;;;;;;5057435;28;20045;-67
2021/07/26 00:51:45;;;;;;;28.92;21.13;;;19.20;99.90;;;;;;5057756;28;20570;-67
2021/07/26 00:54:13;;;;;;;29.15;21.40;;;19.20;99.90;;;;;;5058921;28;20049;-67
2021/07/26 00:56:42;;;;;;;28.15;22.20;;;19.20;99.90;;;;;;5078009;28;20126;-67
2021/07/26 00:59:10;;;;;;;27.65;22.75;;;19.10;99.90;;;;;;5072956;28;20044;-67
2021/07/26 01:01:37;;;;;;;30.67;22.02;;;19.10;99.90;;;;;;5068439;28;20052;-67
2021/07/26 01:04:04;;;;;;;26.40;20.23;;;19.10;99.90;;;;;;5077285;28;20052;-67
2021/07/26 01:06:31;;;;;;;28.33;20.75;;;19.10;99.90;;;;;;5077393;28;20040;-67
2021/07/26 01:08:57;;;;;;;27.40;20.98;;;19.00;99.90;;;;;;5066156;28;20049;-67
2021/07/26 01:11:24;;;;;;;28.20;21.75;;;18.90;99.90;;;;;;5068654;28;20045;-77
2021/07/26 01:13:52;;;;;;;27.27;19.17;;;18.90;99.90;;;;;;5057874;28;20452;-67
2021/07/26 01:16:18;;;;;;;35.33;21.92;;;18.90;99.90;;;;;;5057775;28;20041;-67
2021/07/26 01:18:45;;;;;;;26.23;21.20;;;18.90;99.90;;;;;;5074147;28;20106;-67
2021/07/26 01:21:14;;;;;;;28.58;21.00;;;18.80;99.90;;;;;;5065918;28;20075;-67
2021/07/26 01:23:42;;;;;;;23.45;18.80;;;18.80;99.90;;;;;;5058753;28;20053;-68
2021/07/26 01:26:12;;;;;;;26.80;21.58;;;18.90;99.90;;;;;;5065296;28;20063;-68
2021/07/26 01:28:40;;;;;;;30.60;20.60;;;18.80;99.90;;;;;;5055243;28;20448;-67
2021/07/26 01:31:07;;;;;;;24.95;18.60;;;18.90;99.90;;;;;;5054441;28;20455;-67
2021/07/26 01:33:34;;;;;;;24.98;19.13;;;18.80;99.90;;;;;;5071165;28;20524;-67
2021/07/26 01:36:01;;;;;;;27.98;20.35;;;18.80;99.90;;;;;;5074568;28;20044;-67
2021/07/26 01:38:29;;;;;;;27.17;21.17;;;18.70;99.90;;;;;;5073516;28;20099;-67
2021/07/26 01:41:01;;;;;;;29.88;21.13;;;18.70;99.90;;;;;;5074489;28;20052;-67
2021/07/26 01:43:32;;;;;;;30.38;21.50;;;18.70;99.90;;;;;;5073966;28;20054;-67
2021/07/26 01:46:04;;;;;;;28.00;21.15;;;18.70;99.90;;;;;;5061936;28;20045;-67
2021/07/26 01:48:39;;;;;;;26.30;21.25;;;18.80;99.90;;;;;;5057288;28;20041;-67
2021/07/26 01:51:11;;;;;;;26.23;20.42;;;18.90;99.90;;;;;;5054162;28;20104;-66
2021/07/26 01:53:41;;;;;;;27.60;22.00;;;18.90;99.90;;;;;;5054321;28;20098;-67
2021/07/26 01:56:15;;;;;;;26.00;20.75;;;18.90;99.90;;;;;;5066235;28;20063;-67
2021/07/26 01:58:43;;;;;;;30.23;22.58;;;18.80;99.90;;;;;;5072527;28;20044;-67
2021/07/26 02:01:09;;;;;;;31.88;21.42;;;18.80;99.90;;;;;;5073014;28;20048;-67
2021/07/26 02:03:36;;;;;;;28.77;22.17;;;18.70;99.90;;;;;;5067122;28;20091;-67
2021/07/26 02:06:02;;;;;;;29.88;22.02;;;18.70;99.90;;;;;;5053853;28;20099;-67
2021/07/26 02:08:29;;;;;;;26.50;20.60;;;18.60;99.90;;;;;;5061406;28;20098;-67
2021/07/26 02:10:57;;;;;;;28.67;20.40;;;18.60;99.90;;;;;;5074693;28;20045;-67
2021/07/26 02:13:23;;;;;;;29.15;21.58;;;18.60;99.90;;;;;;5072901;28;20112;-67
2021/07/26 02:15:50;;;;;;;27.90;23.05;;;18.50;99.90;;;;;;5073742;28;20049;-67
2021/07/26 02:18:16;;;;;;;28.58;22.20;;;18.50;99.90;;;;;;5073094;28;20048;-68
2021/07/26 02:20:43;;;;;;;29.73;21.70;;;18.60;99.90;;;;;;5072199;28;20485;-67
2021/07/26 02:23:10;;;;;;;30.70;23.23;;;18.60;99.90;;;;;;5072417;28;20390;-67
2021/07/26 02:25:36;;;;;;;33.72;24.27;;;18.60;99.90;;;;;;5071886;28;20122;-68
2021/07/26 02:28:05;;;;;;;30.00;22.85;;;18.60;99.90;;;;;;5067274;28;20041;-68
2021/07/26 02:30:31;;;;;;;31.65;24.98;;;18.70;99.90;;;;;;5052964;28;20103;-68
2021/07/26 02:32:58;;;;;;;29.83;21.15;;;18.70;99.90;;;;;;5059769;28;20409;-68
2021/07/26 02:35:24;;;;;;;31.00;22.10;;;18.70;99.90;;;;;;5073213;28;20532;-67
2021/07/26 02:37:52;;;;;;;30.35;22.88;;;18.70;99.90;;;;;;5073214;28;20098;-72
2021/07/26 02:40:18;;;;;;;29.90;22.10;;;18.70;99.90;;;;;;5071243;28;20109;-67
2021/07/26 02:42:45;;;;;;;32.28;21.85;;;18.70;99.90;;;;;;5071346;28;20048;-68
2021/07/26 02:45:13;;;;;;;31.33;23.60;;;18.80;99.90;;;;;;5073180;28;20485;-68
2021/07/26 02:47:40;;;;;;;33.45;23.98;;;18.80;99.90;;;;;;5068598;28;20053;-68
2021/07/26 02:50:07;;;;;;;28.88;22.73;;;18.80;99.90;;;;;;5067831;28;20041;-71
2021/07/26 02:52:34;;;;;;;34.92;25.30;;;18.70;99.90;;;;;;5053656;28;20071;-67
2021/07/26 02:55:01;;;;;;;34.33;25.90;;;18.70;99.90;;;;;;5052673;28;20120;-67
2021/07/26 02:57:28;;;;;;;33.47;24.00;;;18.70;99.90;;;;;;5053895;28;20051;-68
2021/07/26 02:59:54;;;;;;;32.38;23.63;;;18.70;99.90;;;;;;5072264;28;20201;-67
2021/07/26 03:02:22;;;;;;;33.40;23.60;;;18.70;99.90;;;;;;5056320;28;20118;-67
2021/07/26 03:04:49;;;;;;;33.75;24.23;;;18.70;99.90;;;;;;5072550;28;20093;-66
2021/07/26 03:07:15;;;;;;;30.20;22.77;;;18.80;99.90;;;;;;5072508;28;20095;-67
2021/07/26 03:09:42;;;;;;;29.95;22.88;;;18.70;99.90;;;;;;5071722;28;20094;-67
2021/07/26 03:12:09;;;;;;;31.17;24.08;;;18.70;99.90;;;;;;5072525;28;20102;-67
2021/07/26 03:14:35;;;;;;;29.42;22.90;;;18.60;99.90;;;;;;5068290;28;20580;-66
2021/07/26 03:17:03;;;;;;;36.38;25.70;;;18.60;99.90;;;;;;5065306;28;20562;-66
2021/07/26 03:19:31;;;;;;;33.22;24.52;;;18.60;99.90;;;;;;5071935;28;20045;-67
2021/07/26 03:22:53;;;;;;;33.45;25.55;;;18.60;99.90;;;;;;5072802;28;20052;-67
2021/07/26 03:25:20;;;;;;;35.08;24.38;;;18.70;99.90;;;;;;5072280;28;20045;-67
2021/07/26 03:27:48;;;;;;;32.72;23.55;;;18.80;99.90;;;;;;5069776;28;20049;-67
2021/07/26 03:30:16;;;;;;;35.50;23.58;;;18.80;99.90;;;;;;5051680;28;20501;-66
2021/07/26 03:32:42;;;;;;;33.13;23.23;;;18.80;99.90;;;;;;5071892;28;20558;-74
2021/07/26 03:35:12;;;;;;;31.80;24.73;;;18.80;99.90;;;;;;5066942;28;20067;-68
2021/07/26 03:37:38;;;;;;;27.48;22.38;;;18.70;99.90;;;;;;5062251;28;20536;-69
2021/07/26 03:40:07;;;;;;;31.50;24.02;;;18.70;99.90;;;;;;5051431;28;20094;-68
2021/07/26 03:42:34;;;;;;;26.75;20.95;;;18.70;99.90;;;;;;5052216;28;20041;-67
2021/07/26 03:45:01;;;;;;;34.22;24.20;;;18.70;99.90;;;;;;5060445;28;20477;-70
2021/07/26 03:47:28;;;;;;;28.20;23.25;;;18.70;99.90;;;;;;5063690;28;20045;-74
2021/07/26 03:49:55;;;;;;;27.45;22.00;;;18.70;99.90;;;;;;5055262;28;20425;-71
2021/07/26 03:52:24;;;;;;;27.85;23.02;;;18.70;99.90;;;;;;5071923;28;20094;-71
2021/07/26 03:54:50;;;;;;;29.33;22.65;;;18.80;99.90;;;;;;5071951;28;20049;-70
2021/07/26 03:57:17;;;;;;;27.65;22.10;;;18.80;99.90;;;;;;5057945;28;20045;-68
2021/07/26 03:59:44;;;;;;;29.92;24.17;;;18.80;99.90;;;;;;5052592;28;20056;-64
2021/07/26 04:02:10;;;;;;;30.73;24.90;;;18.70;99.90;;;;;;5055364;28;20567;-68
2021/07/26 04:04:37;;;;;;;28.90;23.90;;;18.60;99.90;;;;;;5061197;28;20048;-67
2021/07/26 04:07:08;;;;;;;34.30;24.55;;;18.60;99.90;;;;;;5054205;28;20068;-66
2021/07/26 04:09:39;;;;;;;34.33;26.10;;;18.60;99.90;;;;;;5068981;28;20382;-67
2021/07/26 04:12:09;;;;;;;32.08;23.75;;;18.60;99.90;;;;;;5057587;28;20480;-66
2021/07/26 04:14:38;;;;;;;31.77;24.05;;;18.60;99.90;;;;;;5062982;28;20058;-67
2021/07/26 04:17:05;;;;;;;30.13;23.98;;;18.80;99.90;;;;;;5073760;28;20048;-66
2021/07/26 04:19:32;;;;;;;35.97;24.77;;;18.80;99.90;;;;;;5071928;28;20059;-66
2021/07/26 04:21:59;;;;;;;30.23;23.27;;;18.90;99.90;;;;;;5071520;28;20546;-66
2021/07/26 04:24:26;;;;;;;28.00;22.65;;;18.90;99.90;;;;;;5054127;28;20060;-70
2021/07/26 04:26:54;;;;;;;27.67;21.13;;;19.00;99.90;;;;;;5051663;28;20072;-68
2021/07/26 04:29:21;;;;;;;30.55;21.55;;;19.10;99.90;;;;;;5069860;28;20044;-69
2021/07/26 04:31:48;;;;;;;30.92;25.35;;;19.10;99.90;;;;;;5056149;28;20045;-69
2021/07/26 04:34:15;;;;;;;29.88;22.67;;;19.10;99.90;;;;;;5052188;28;20049;-68
2021/07/26 04:36:42;;;;;;;35.35;25.15;;;19.10;99.90;;;;;;5051894;28;20049;-70
2021/07/26 04:39:09;;;;;;;31.02;23.73;;;19.10;99.90;;;;;;5062290;28;20055;-74
2021/07/26 04:41:35;;;;;;;30.02;24.67;;;19.10;99.90;;;;;;5071379;28;20052;-71
2021/07/26 04:44:05;;;;;;;31.60;24.35;;;19.10;99.90;;;;;;5071527;28;20052;-77
2021/07/26 04:46:33;;;;;;;27.55;22.10;;;19.20;99.90;;;;;;5070128;28;20045;-77
2021/07/26 04:49:00;;;;;;;28.80;22.20;;;19.30;99.90;;;;;;5070526;28;20056;-69
2021/07/26 04:51:27;;;;;;;31.45;25.02;;;19.40;99.90;;;;;;5071165;28;20045;-72
2021/07/26 04:54:01;;;;;;;40.92;28.70;;;19.40;99.90;;;;;;5070634;28;20040;-75
2021/07/26 04:56:33;;;;;;;37.45;28.15;;;19.40;99.90;;;;;;5071171;28;20048;-75
2021/07/26 04:59:03;;;;;;;48.42;34.78;;;19.40;99.90;;;;;;5069702;28;20044;-75
2021/07/26 05:01:29;;;;;;;42.78;31.17;;;19.60;99.90;;;;;;5069569;28;20410;-75
2021/07/26 05:03:56;;;;;;;46.75;30.98;;;19.60;99.90;;;;;;5072613;28;20098;-72
2021/07/26 05:06:22;;;;;;;31.88;25.73;;;19.50;99.90;;;;;;5069758;28;20041;-73
2021/07/26 05:08:49;;;;;;;35.80;25.33;;;19.50;99.90;;;;;;5064073;28;20041;-72
2021/07/26 05:11:22;;;;;;;38.15;29.10;;;19.50;99.90;;;;;;5054911;28;20110;-72
2021/07/26 05:13:48;;;;;;;38.22;28.33;;;19.60;99.90;;;;;;5058181;28;20099;-70
2021/07/26 05:16:16;;;;;;;38.38;28.10;;;19.60;99.90;;;;;;5067799;28;20121;-69
2021/07/26 05:18:43;;;;;;;42.78;29.90;;;19.70;99.90;;;;;;5074163;28;20098;-72
2021/07/26 05:21:10;;;;;;;37.90;29.55;;;19.90;99.90;;;;;;5067721;28;20048;-70
2021/07/26 05:23:36;;;;;;;47.90;33.00;;;20.00;99.90;;;;;;5066850;28;20574;-70
2021/07/26 05:26:03;;;;;;;38.95;27.85;;;20.10;99.90;;;;;;5058257;28;20049;-70
2021/07/26 05:28:29;;;;;;;40.50;30.00;;;20.20;99.90;;;;;;5053843;28;20049;-69
2021/07/26 05:30:56;;;;;;;29.58;23.00;;;20.40;99.90;;;;;;5054568;28;20502;-70
2021/07/26 05:33:24;;;;;;;29.42;24.27;;;20.30;99.90;;;;;;5067732;28;20456;-71
2021/07/26 05:35:50;;;;;;;33.95;25.15;;;20.30;99.90;;;;;;5061004;28;20400;-71
2021/07/26 05:38:17;;;;;;;29.70;22.92;;;20.50;99.90;;;;;;5073561;28;20118;-72
2021/07/26 05:40:43;;;;;;;46.95;34.25;;;20.50;99.90;;;;;;5073365;28;20044;-72
2021/07/26 05:43:10;;;;;;;35.75;26.40;;;20.60;99.90;;;;;;5074197;28;20459;-69
2021/07/26 05:45:37;;;;;;;28.42;23.52;;;20.80;99.90;;;;;;5061961;28;20037;-72
2021/07/26 05:48:05;;;;;;;30.33;23.83;;;21.00;99.90;;;;;;5067154;28;20064;-69
2021/07/26 05:50:33;;;;;;;31.35;26.52;;;21.10;99.90;;;;;;5069098;28;20045;-73
2021/07/26 05:52:59;;;;;;;29.77;24.60;;;21.30;99.90;;;;;;5061645;28;20052;-74
2021/07/26 05:55:26;;;;;;;26.08;21.85;;;21.60;99.90;;;;;;5054991;28;20049;-72
2021/07/26 05:57:53;;;;;;;27.10;22.60;;;21.70;99.90;;;;;;5055570;28;20045;-72
2021/07/26 06:00:34;;;;;;;32.20;25.35;;;21.80;99.90;;;;;;5056690;28;20076;-72
2021/07/26 06:03:01;;;;;;;;;;;21.70;99.90;;;;;;5055574;28;20055;-69
2021/07/26 06:05:29;;;;;;;30.98;24.70;;;21.90;99.90;;;;;;5054206;28;19955;-71
2021/07/26 06:07:57;;;;;;;27.55;22.73;;;21.90;99.90;;;;;;5053276;28;20080;-72
2021/07/26 06:10:24;;;;;;;35.08;27.55;;;22.10;99.90;;;;;;5052903;28;20102;-72
2021/07/26 06:12:53;;;;;;;29.67;23.45;;;22.30;99.90;;;;;;5057684;28;20041;-73
2021/07/26 06:18:00;;;;;;;24.83;21.52;;;22.20;99.90;;;;;;5052404;28;20146;-71
2021/07/26 06:20:27;;;;;;;35.72;27.92;;;22.10;99.90;;;;;;5045334;28;20110;-73
2021/07/26 06:22:54;;;;;;;28.65;23.85;;;22.10;99.90;;;;;;5034294;28;20045;-75
2021/07/26 06:25:22;;;;;;;32.33;24.05;;;22.20;99.90;;;;;;5031050;28;20073;-72
2021/07/26 06:27:50;;;;;;;25.67;22.52;;;22.20;99.90;;;;;;5051095;28;20044;-74
2021/07/26 06:30:17;;;;;;;29.20;23.67;;;22.20;99.90;;;;;;5050200;28;20048;-69
2021/07/26 06:32:43;;;;;;;28.98;23.42;;;22.10;99.90;;;;;;5050870;28;20496;-69
2021/07/26 06:35:11;;;;;;;33.08;24.33;;;22.30;99.90;;;;;;5041854;28;20135;-73
2021/07/26 06:37:37;;;;;;;28.23;22.33;;;22.70;99.90;;;;;;5030840;28;20045;-73
2021/07/26 06:40:07;;;;;;;28.67;21.10;;;23.20;99.90;;;;;;5036315;28;20049;-76
2021/07/26 06:42:35;;;;;;;24.58;21.65;;;24.00;99.90;;;;;;5042210;28;20049;-71
2021/07/26 06:45:02;;;;;;;21.20;18.92;;;24.80;99.90;;;;;;5031961;28;20541;-72
2021/07/26 06:47:29;;;;;;;26.33;21.20;;;25.10;99.90;;;;;;5049567;28;20041;-71
2021/07/26 06:49:55;;;;;;;22.02;19.70;;;25.00;99.90;;;;;;5052027;28;20044;-73
2021/07/26 06:52:22;;;;;;;25.58;19.90;;;25.10;99.90;;;;;;5052803;28;20091;-73
2021/07/26 06:54:48;;;;;;;22.65;18.98;;;25.00;99.90;;;;;;5053673;28;20103;-72
2021/07/26 06:57:15;;;;;;;25.90;20.67;;;24.90;99.90;;;;;;5078458;28;20098;-73
2021/07/26 06:59:43;;;;;;;20.67;18.23;;;25.00;99.90;;;;;;5062416;28;20102;-73
2021/07/26 07:02:10;;;;;;;23.15;18.80;;;25.40;99.90;;;;;;5052849;28;20542;-73
2021/07/26 07:04:37;;;;;;;21.38;16.77;;;25.60;99.90;;;;;;5052670;28;20467;-77
2021/07/26 07:07:05;;;;;;;19.00;17.00;;;26.20;99.90;;;;;;5053418;28;20084;-80
2021/07/26 07:09:33;;;;;;;20.20;16.83;;;26.40;99.90;;;;;;5054556;28;20037;-75
2021/07/26 07:11:59;;;;;;;19.63;17.63;;;26.50;99.90;;;;;;5052644;28;20122;-74
2021/07/26 07:14:26;;;;;;;20.02;17.17;;;26.40;99.90;;;;;;5062986;28;20040;-72
2021/07/26 07:16:54;;;;;;;21.90;19.45;;;27.30;99.90;;;;;;5072776;28;20048;-73
2021/07/26 07:19:21;;;;;;;18.45;16.52;;;27.80;99.90;;;;;;5071356;28;20448;-72
2021/07/26 07:21:47;;;;;;;18.13;16.23;;;27.50;99.90;;;;;;5072000;28;20555;-71
2021/07/26 07:24:14;;;;;;;19.35;16.80;;;27.40;99.90;;;;;;5055003;28;20049;-72
2021/07/26 07:29:21;;;;;;;16.92;15.20;;;28.50;99.90;;;;;;4952832;28;20045;-75
2021/07/26 07:31:48;;;;;;;17.08;15.20;;;29.00;99.90;;;;;;5013325;28;20053;-73
2021/07/26 07:34:16;;;;;;;18.63;16.67;;;29.50;99.90;;;;;;5011583;28;20045;-74
2021/07/26 07:36:43;;;;;;;18.50;16.60;;;30.00;99.90;;;;;;5019983;28;20045;-74
2021/07/26 07:39:10;;;;;;;19.85;17.85;;;29.90;99.90;;;;;;5014828;28;20053;-74
2021/07/26 07:41:37;;;;;;;20.40;18.30;;;30.20;99.90;;;;;;5010014;28;20076;-73
2021/07/26 07:44:04;;;;;;;18.17;16.27;;;30.70;99.90;;;;;;5018775;28;20314;-69
2021/07/26 07:46:31;;;;;;;21.25;18.33;;;31.00;99.90;;;;;;5029511;28;20049;-69
2021/07/26 07:48:58;;;;;;;20.63;18.63;;;30.70;99.90;;;;;;5028071;28;20045;-73
2021/07/26 07:51:26;;;;;;;17.98;16.25;;;30.40;99.90;;;;;;5020103;28;20046;-73
2021/07/26 07:53:54;;;;;;;18.67;16.73;;;30.00;99.90;;;;;;5022135;28;20056;-77
2021/07/26 07:56:20;;;;;;;20.23;18.23;;;29.70;99.90;;;;;;5009833;28;20041;-75
2021/07/26 07:58:49;;;;;;;19.90;17.20;;;29.30;99.90;;;;;;5018936;28;20049;-71
2021/07/26 08:01:15;;;;;;;18.45;16.48;;;29.20;99.90;;;;;;5030356;28;20077;-75
2021/07/26 08:03:42;;;;;;;17.83;16.00;;;29.70;99.90;;;;;;5033316;28;20045;-74
2021/07/26 08:06:09;;;;;;;18.02;16.30;;;29.70;99.90;;;;;;5032603;28;20050;-73
2021/07/26 08:08:37;;;;;;;21.73;19.40;;;29.60;99.90;;;;;;5039837;28;20095;-74
2021/07/26 08:11:05;;;;;;;20.33;18.17;;;29.70;99.90;;;;;;5051599;28;20110;-67
2021/07/26 08:13:35;;;;;;;20.65;18.55;;;29.90;99.90;;;;;;5043914;28;20042;-68
2021/07/26 08:16:01;;;;;;;18.73;16.75;;;30.20;99.90;;;;;;5031667;28;20049;-69
2021/07/26 08:18:28;;;;;;;16.75;15.07;;;30.10;99.90;;;;;;5034863;28;20049;-68
2021/07/26 08:20:55;;;;;;;17.33;15.85;;;30.00;98.90;;;;;;5031887;28;20548;-67
2021/07/26 08:23:21;;;;;;;22.73;15.50;;;29.90;97.40;;;;;;5040172;28;20041;-67
2021/07/26 08:25:50;;;;;;;15.13;13.63;;;29.20;99.00;;;;;;5051279;28;20136;-68
2021/07/26 08:28:17;;;;;;;18.13;16.33;;;29.80;99.60;;;;;;5050932;28;20053;-69
2021/07/26 08:30:44;;;;;;;18.27;16.52;;;30.00;98.10;;;;;;5040360;28;20426;-68
2021/07/26 08:33:11;;;;;;;18.15;15.65;;;29.50;99.10;;;;;;5039067;28;20110;-68
2021/07/26 08:35:38;;;;;;;16.95;15.43;;;29.70;99.80;;;;;;5036218;28;20049;-69
2021/07/26 08:38:05;;;;;;;17.08;15.55;;;29.20;99.90;;;;;;5052129;28;20048;-67
2021/07/26 08:40:34;;;;;;;18.85;16.95;;;28.90;99.90;;;;;;5054571;28;20053;-71
2021/07/26 08:43:04;;;;;;;19.02;17.00;;;28.90;99.90;;;;;;5054561;28;20049;-69
2021/07/26 08:45:32;;;;;;;18.13;16.42;;;29.10;99.90;;;;;;5054931;28;20501;-72
2021/07/26 08:48:04;;;;;;;18.90;17.00;;;29.30;99.90;;;;;;5055353;28;20080;-68
2021/07/26 08:50:33;;;;;;;19.85;17.83;;;30.00;99.90;;;;;;5054126;28;20080;-69
2021/07/26 08:53:02;;;;;;;20.23;17.98;;;30.80;99.90;;;;;;5051937;28;20041;-67
2021/07/26 08:55:32;;;;;;;17.50;15.68;;;31.50;99.60;;;;;;5034963;28;20050;-66
2021/07/26 08:57:59;;;;;;;21.48;19.38;;;31.40;97.30;;;;;;5035029;28;20510;-67
2021/07/26 09:00:27;;;;;;;18.48;16.67;;;31.20;97.80;;;;;;5044541;28;20048;-67
2021/07/26 09:02:55;;;;;;;21.75;18.70;;;31.40;96.60;;;;;;5053459;28;20099;-66
2021/07/26 09:05:22;;;;;;;18.75;16.90;;;31.30;95.40;;;;;;5054945;28;20132;-67
2021/07/26 09:07:50;;;;;;;19.73;17.67;;;31.40;96.10;;;;;;5052746;28;20136;-67
2021/07/26 09:10:19;;;;;;;16.17;14.57;;;31.40;94.40;;;;;;5054133;28;20059;-68
2021/07/26 09:12:48;;;;;;;18.10;16.23;;;32.40;93.70;;;;;;5054551;28;20041;-68
2021/07/26 09:15:29;;;;;;;16.55;11.18;;;33.50;90.00;;;;;;5054685;28;20041;-68
2021/07/26 09:17:57;;;;;;;13.38;12.02;;;33.40;79.20;;;;;;5041978;28;20041;-69
2021/07/26 09:20:28;;;;;;;19.35;16.70;;;32.60;81.40;;;;;;5053807;28;20052;-69
2021/07/26 09:22:56;;;;;;;21.65;18.85;;;32.40;83.20;;;;;;5054836;28;20040;-69
2021/07/26 09:25:24;;;;;;;11.02;10.00;;;32.70;84.10;;;;;;5037237;28;20482;-69
2021/07/26 09:28:02;;;;;;;12.15;10.93;;;33.00;78.10;;;;;;5034799;28;20042;-70
2021/07/26 09:30:34;;;;;;;10.82;8.68;;;33.00;79.70;;;;;;5033819;28;20141;-68
2021/07/26 09:33:01;;;;;;;10.02;8.98;;;33.50;75.70;;;;;;5034675;28;20076;-69
2021/07/26 09:35:28;;;;;;;12.80;11.52;;;33.60;72.50;;;;;;5034627;28;20045;-68
2021/07/26 09:38:00;;;;;;;12.15;10.48;;;33.60;71.80;;;;;;5034566;28;20046;-69
2021/07/26 09:40:32;;;;;;;11.02;8.75;;;34.40;71.80;;;;;;5033665;28;20049;-68
2021/07/26 09:43:16;;;;;;;8.57;7.78;;;33.80;68.80;;;;;;5033999;28;20044;-68
2021/07/26 09:45:45;;;;;;;9.75;8.82;;;33.70;69.70;;;;;;5043058;28;20045;-69
2021/07/26 09:48:14;;;;;;;8.10;7.32;;;34.10;69.50;;;;;;5041293;28;20076;-70
2021/07/26 09:50:41;;;;;;;10.05;8.93;;;34.50;69.10;;;;;;5032814;28;20513;-69
2021/07/26 09:53:15;;;;;;;9.38;8.50;;;35.30;67.60;;;;;;5043254;28;20049;-69
2021/07/26 09:55:43;;;;;;;10.15;9.25;;;35.40;65.50;;;;;;5047301;28;20314;-70
2021/07/26 09:58:12;;;;;;;10.48;9.38;;;34.90;63.80;;;;;;5038636;28;20045;-71
2021/07/26 10:00:39;;;;;;;12.60;11.15;;;35.20;63.80;;;;;;5041457;28;20152;-74
2021/07/26 10:03:09;;;;;;;23.17;20.25;;;35.30;66.40;;;;;;5034977;28;20053;-70
2021/07/26 10:05:37;;;;;;;12.03;10.77;;;35.70;64.30;;;;;;5033887;28;20045;-70
2021/07/26 10:08:05;;;;;;;12.10;10.90;;;35.30;64.20;;;;;;5034900;28;20079;-71
2021/07/26 10:10:34;;;;;;;11.27;10.27;;;35.30;65.10;;;;;;5033309;28;20057;-70
2021/07/26 10:13:01;;;;;;;13.93;12.60;;;35.80;65.10;;;;;;5033675;28;20049;-71
2021/07/26 10:15:30;;;;;;;12.02;10.93;;;36.20;64.20;;;;;;5033599;28;20048;-69
2021/07/26 10:17:57;;;;;;;11.70;10.60;;;36.00;62.80;;;;;;5042946;28;20045;-71
2021/07/26 10:20:28;;;;;;;11.50;10.50;;;35.80;64.60;;;;;;5052672;28;20098;-69
2021/07/26 10:23:06;;;;;;;9.10;8.20;;;35.10;65.10;;;;;;5037870;28;20072;-71
2021/07/26 10:25:37;;;;;;;9.80;8.90;;;34.90;63.10;;;;;;5033258;28;20498;-70
2021/07/26 10:28:10;;;;;;;9.75;8.85;;;35.00;61.80;;;;;;5033415;28;20045;-71
2021/07/26 10:30:38;;;;;;;9.10;8.30;;;34.90;61.90;;;;;;5033115;28;20037;-70
2021/07/26 10:33:06;;;;;;;10.00;9.05;;;35.40;63.00;;;;;;5033311;28;20132;-70
2021/07/26 10:35:38;;;;;;;10.60;9.60;;;35.20;62.80;;;;;;5033059;28;20125;-70
2021/07/26 10:38:07;;;;;;;9.77;8.80;;;35.50;61.00;;;;;;5034412;28;20053;-69
2021/07/26 10:40:38;;;;;;;9.40;8.60;;;36.20;63.60;;;;;;5036958;28;20094;-70
2021/07/26 10:43:05;;;;;;;10.50;9.48;;;35.60;60.90;;;;;;5052956;28;20049;-71
2021/07/26 10:46:01;;;;;;;11.13;10.07;;;34.90;62.10;;;;;;5045774;28;20524;-70
2021/07/26 10:48:35;;;;;;;11.25;10.05;;;35.70;61.50;;;;;;5033563;28;20132;-71
2021/07/26 10:51:23;;;;;;;10.07;9.25;;;35.90;61.60;;;;;;5051764;28;20060;-71
2021/07/26 10:53:57;;;;;;;10.40;9.50;;;35.90;61.20;;;;;;5049322;28;20412;-71
2021/07/26 10:56:24;;;;;;;9.48;8.68;;;36.30;62.30;;;;;;5046260;28;20072;-70
2021/07/26 10:59:06;;;;;;;9.50;8.60;;;36.50;58.60;;;;;;5046373;28;20052;-70
2021/07/26 11:01:39;;;;;;;9.40;8.32;;;36.00;57.50;;;;;;5044976;28;20064;-72
2021/07/26 11:04:42;;;;;;;8.95;8.25;;;35.90;58.60;;;;;;5033393;28;20452;-69
2021/07/26 11:07:12;;;;;;;16.85;14.18;;;36.80;57.90;;;;;;5033256;28;20548;-71
2021/07/26 11:09:48;;;;;;;9.82;8.80;;;36.90;59.10;;;;;;5046937;28;20049;-69
2021/07/26 11:12:35;;;;;;;9.00;8.10;;;36.80;59.20;;;;;;5048723;28;20095;-77
2021/07/26 11:15:15;;;;;;;10.18;9.32;;;37.50;57.10;;;;;;5034207;28;20045;-68
2021/07/26 11:18:17;;;;;;;14.65;13.20;;;37.10;56.80;;;;;;5032354;28;20049;-68
2021/07/26 11:21:06;;;;;;;9.05;8.18;;;37.60;56.00;;;;;;5031839;28;20049;-69
2021/07/26 11:23:40;;;;;;;11.52;10.43;;;38.20;54.60;;;;;;5038528;28;20041;-73
2021/07/26 11:26:17;;;;;;;8.90;8.10;;;36.80;54.90;;;;;;5032295;28;20486;-66
2021/07/26 11:28:45;;;;;;;9.82;8.93;;;37.10;55.40;;;;;;5036760;28;20485;-68
2021/07/26 11:31:19;;;;;;;12.75;11.30;;;36.80;55.10;;;;;;5052045;28;20101;-70
2021/07/26 11:33:46;;;;;;;10.88;9.88;;;36.80;56.40;;;;;;5051979;28;20149;-69
2021/07/26 11:36:13;;;;;;;17.38;14.35;;;37.40;57.40;;;;;;5051965;28;20094;-71
2021/07/26 11:38:58;;;;;;;13.40;12.00;;;37.40;57.00;;;;;;5051446;28;20540;-70
2021/07/26 11:41:25;;;;;;;14.10;12.38;;;36.80;58.30;;;;;;5051546;28;20416;-69
2021/07/26 11:43:53;;;;;;;9.60;8.70;;;37.80;56.30;;;;;;5051710;28;20044;-70
2021/07/26 11:46:20;;;;;;;8.48;7.57;;;37.80;55.50;;;;;;5051828;28;20132;-69
2021/07/26 11:48:46;;;;;;;8.48;7.70;;;36.90;56.20;;;;;;5047874;28;20041;-69
2021/07/26 11:51:30;;;;;;;9.57;8.68;;;36.40;55.00;;;;;;5032051;28;20049;-71
2021/07/26 11:54:00;;;;;;;8.70;8.00;;;35.90;56.60;;;;;;5031784;28;20045;-69
2021/07/26 11:56:29;;;;;;;7.60;6.97;;;35.70;57.80;;;;;;5031756;28;20042;-68
2021/07/26 11:59:16;;;;;;;7.75;6.80;;;35.90;56.60;;;;;;5031480;28;20136;-68
2021/07/26 12:01:47;;;;;;;7.57;6.60;;;35.50;56.80;;;;;;5038738;28;20053;-69
2021/07/26 12:04:16;;;;;;;8.38;6.93;;;34.80;57.20;;;;;;5051541;28;20049;-70
2021/07/26 12:06:51;;;;;;;7.00;6.40;;;33.80;59.80;;;;;;5051158;28;20508;-71
2021/07/26 12:09:19;;;;;;;8.07;7.35;;;33.70;59.20;;;;;;5046929;28;20045;-71
2021/07/26 12:11:46;;;;;;;7.90;7.15;;;32.40;61.20;;;;;;5033380;28;20053;-69
2021/07/26 12:14:27;;;;;;;11.13;9.00;;;32.30;62.90;;;;;;5048674;28;20041;-69
2021/07/26 12:17:04;;;;;;;7.78;7.05;;;32.10;63.80;;;;;;5032147;28;20071;-69
2021/07/26 12:19:32;;;;;;;9.23;8.32;;;32.80;66.10;;;;;;5031422;28;20394;-70
2021/07/26 12:22:13;;;;;;;8.48;7.63;;;33.70;62.40;;;;;;5031756;28;20041;-69
2021/07/26 12:24:46;;;;;;;8.77;7.97;;;34.80;61.50;;;;;;5031890;28;20049;-70
2021/07/26 12:27:23;;;;;;;9.02;8.15;;;35.20;59.30;;;;;;5031508;28;20480;-69
2021/07/26 12:29:54;;;;;;;7.55;6.95;;;35.20;58.40;;;;;;5040229;28;20103;-70
2021/07/26 12:32:21;;;;;;;9.73;8.52;;;35.50;58.30;;;;;;5051353;28;20045;-68
2021/07/26 12:35:24;;;;;;;7.50;6.72;;;34.80;58.50;;;;;;5051397;28;20041;-70
2021/07/26 12:38:01;;;;;;;7.13;5.93;;;35.20;58.00;;;;;;5049620;28;20056;-69
2021/07/26 12:40:29;;;;;;;7.55;6.85;;;35.20;57.20;;;;;;5050498;28;20048;-70
2021/07/26 12:43:07;;;;;;;8.07;7.28;;;34.70;57.80;;;;;;5051339;28;20045;-69
2021/07/26 12:45:34;;;;;;;8.35;6.20;;;34.80;58.50;;;;;;5036001;28;20037;-69